• Join FlightAware (Why Join?)
  • Login
  • US Flag 
12:23PM EDT


 

Airport Tracker/Info


-or-


 

Live Flight TrackerFlight Track Log ✈ QXE2627 ✈ 27-Jan-2014 ✈ KSEA - KPDX

Flight Track Log - Related Links

Times and Time Zones

All times are in EST time to prevent confusion due to time zone crossing. See the QXE2627 flight status page for this flight to view local times or setup timezone preferences in your user account.

Time Position Orientation Groundspeed Altitude Reporting Facility
EST Latitude Longitude Course Direction KTS MPH feet Rate Location/Type
10:45PM 46.9470 -122.3908 180° South  Level Estimated
10:46PM 46.8752 -122.4019 180° South  Level Estimated
10:47PM 46.8081 -122.3628 158° South  Level FlightAware Approximate
10:48PM 46.7410 -122.3238 158° South  Level FlightAware Approximate
10:49PM 46.6697 -122.3410 180° South  Level Estimated
10:50PM 46.6180 -122.3535 180° South  Level Estimated
10:51PM 46.5680 -122.3308 163° South  Level FlightAware Approximate
10:52PM 46.5165 -122.3450 180° South  Level Estimated
10:53PM 46.4664 -122.3224 163° South  Level FlightAware Approximate
10:54PM 46.4152 -122.3387 180° South  Level Estimated
10:55PM 46.3635 -122.3265 171° South  Level FlightAware Approximate
10:56PM 46.3117 -122.3144 171° South  Level FlightAware Approximate
10:57PM 46.2612 -122.3344 203° Southwest  Level Estimated
10:58PM 46.2091 -122.3430 187° South  Level FlightAware Approximate
10:59PM 46.1587 -122.3639 196° South  Level Estimated
11:00PM 46.1083 -122.3847 270° West  Level Estimated
11:01PM 46.0579 -122.4054 196° South  Level Estimated
11:02PM 46.0075 -122.4261 203° Southwest  Level Estimated
11:03PM 45.9595 -122.4564 204° Southwest  Level FlightAware Approximate
11:04PM 45.9089 -122.4757 224° Southwest  Level Estimated
11:05PM 45.8744 -122.5324 229° Southwest  Level FlightAware Approximate
11:06PM 45.8076 -122.5475 215° Southwest  Level Estimated
11:07PM 45.7408 -122.5626 234° Southwest  Level Estimated
11:08PM 45.6740 -122.5777 296° West  Level Estimated
11:09PM 45.6072 -122.5927 145° Southeast  Level Estimated
11:10PM 45.5887 -122.5969 137° Southeast  Level Estimated
11:11PM 45.5887 -122.5969 139° Southeast  Level Estimated
11:12PM 45.5887 -122.5969 139° Southeast  Level Estimated
11:13PM 45.5887 -122.5969 139° Southeast  Level Estimated
11:14PM 45.5887 -122.5969 139° Southeast  Level Estimated
11:15PM 45.5887 -122.5969 139° Southeast  Level Estimated
11:16PM 45.5887 -122.5969 139° Southeast  Level Estimated